createdAt,value
2023-10-02T00:00:58.190Z,15.43
2023-10-02T00:01:58.243Z,15.43
2023-10-02T00:02:58.269Z,15.43
2023-10-02T00:03:58.199Z,15.44
2023-10-02T00:04:58.186Z,15.43
2023-10-02T00:05:58.149Z,15.43
2023-10-02T00:06:58.135Z,15.42
2023-10-02T00:07:58.229Z,15.39
2023-10-02T00:08:58.088Z,15.43
2023-10-02T00:09:58.068Z,15.40
2023-10-02T00:10:58.101Z,15.31
2023-10-02T00:11:58.135Z,15.43
2023-10-02T00:12:58.063Z,15.40
2023-10-02T00:13:58.133Z,15.35
2023-10-02T00:14:58.074Z,15.40
2023-10-02T00:15:58.061Z,15.37
2023-10-02T00:16:58.104Z,15.37
2023-10-02T00:17:58.156Z,15.29
2023-10-02T00:18:58.005Z,15.43
2023-10-02T00:19:58.021Z,15.42
2023-10-02T00:20:57.956Z,15.36
2023-10-02T00:21:57.958Z,15.36
2023-10-02T00:22:58.013Z,15.39
2023-10-02T00:23:57.943Z,15.36
2023-10-02T00:24:57.939Z,15.36
2023-10-02T00:25:57.906Z,15.39
2023-10-02T00:26:57.888Z,15.29
2023-10-02T00:27:57.878Z,15.39
2023-10-02T00:28:58.064Z,15.35
2023-10-02T00:29:57.880Z,15.24
2023-10-02T00:30:57.960Z,15.40
2023-10-02T00:31:57.883Z,15.29
2023-10-02T00:32:57.863Z,15.36
2023-10-02T00:33:57.838Z,15.36
2023-10-02T00:34:57.865Z,15.39
2023-10-02T00:35:57.917Z,15.40
2023-10-02T00:36:57.793Z,15.29
2023-10-02T00:37:57.817Z,15.35
2023-10-02T00:38:57.799Z,15.39
2023-10-02T00:39:57.793Z,15.33
2023-10-02T00:40:57.832Z,15.31
2023-10-02T00:41:57.806Z,15.35
2023-10-02T00:42:57.820Z,15.43
2023-10-02T00:43:57.772Z,15.29
2023-10-02T00:44:57.741Z,15.35
2023-10-02T00:45:57.720Z,15.33
2023-10-02T00:46:57.757Z,15.35
2023-10-02T00:47:57.822Z,15.31
2023-10-02T00:48:57.669Z,15.21
2023-10-02T00:49:57.673Z,15.31
2023-10-02T00:50:57.684Z,15.31
2023-10-02T00:51:57.688Z,15.28
2023-10-02T00:52:57.685Z,15.33
2023-10-02T00:53:57.695Z,15.28
2023-10-02T00:54:57.610Z,15.24
2023-10-02T00:55:57.698Z,15.21
2023-10-02T00:56:57.595Z,15.28
2023-10-02T00:57:57.723Z,15.28
2023-10-02T00:58:57.619Z,15.25
2023-10-02T00:59:57.604Z,15.27
2023-10-02T01:00:57.611Z,15.25
2023-10-02T01:01:57.641Z,15.28
2023-10-02T01:02:57.628Z,15.25
2023-10-02T01:03:57.549Z,15.31
2023-10-02T01:04:57.565Z,15.28
2023-10-02T01:05:57.578Z,15.21
2023-10-02T01:06:57.521Z,15.24
2023-10-02T01:07:57.499Z,15.18
2023-10-02T01:08:57.460Z,15.25
2023-10-02T01:09:57.444Z,15.21
2023-10-02T01:10:57.463Z,15.25
2023-10-02T01:11:57.548Z,15.25
2023-10-02T01:12:57.408Z,15.24
2023-10-02T01:13:57.428Z,15.24
2023-10-02T01:14:57.410Z,15.25
2023-10-02T01:15:57.379Z,15.24
2023-10-02T01:16:57.711Z,15.15
2023-10-02T01:17:57.543Z,15.25
2023-10-02T01:18:57.359Z,15.24
2023-10-02T01:19:58.140Z,15.14
2023-10-02T01:20:57.364Z,15.27
2023-10-02T01:21:57.313Z,15.22
2023-10-02T01:22:57.379Z,15.24
2023-10-02T01:23:57.296Z,15.25
2023-10-02T01:24:57.282Z,15.24
2023-10-02T01:25:57.420Z,15.27
2023-10-02T01:26:57.264Z,15.22
2023-10-02T01:27:57.276Z,15.27
2023-10-02T01:28:57.274Z,15.25
2023-10-02T01:29:57.230Z,15.24
2023-10-02T01:30:57.249Z,15.25
2023-10-02T01:31:57.294Z,15.25
2023-10-02T01:32:57.284Z,15.24
2023-10-02T01:33:57.201Z,15.27
2023-10-02T01:34:57.262Z,15.33
2023-10-02T01:35:59.276Z,15.28
2023-10-02T01:36:57.169Z,15.18
2023-10-02T01:37:57.264Z,15.31
2023-10-02T01:38:57.141Z,15.18
2023-10-02T01:39:57.117Z,15.29
2023-10-02T01:40:57.135Z,15.28
2023-10-02T01:41:57.105Z,15.28
2023-10-02T01:42:57.096Z,15.31
2023-10-02T01:43:57.227Z,15.29
2023-10-02T01:44:57.082Z,15.24
2023-10-02T01:45:57.058Z,15.22
2023-10-02T01:46:57.099Z,15.27
2023-10-02T01:47:57.057Z,15.21
2023-10-02T01:48:57.039Z,15.21
2023-10-02T01:49:57.142Z,15.22
2023-10-02T01:50:57.007Z,15.31
2023-10-02T01:51:56.997Z,15.25
2023-10-02T01:52:56.998Z,15.22
2023-10-02T01:53:56.985Z,15.25
2023-10-02T01:54:56.975Z,15.24
2023-10-02T01:55:57.047Z,15.31
2023-10-02T01:56:56.943Z,15.35
2023-10-02T01:57:56.925Z,15.33
2023-10-02T01:58:57.004Z,15.36
2023-10-02T01:59:56.932Z,15.21
2023-10-02T02:00:56.969Z,15.33
2023-10-02T02:01:57.116Z,15.36
2023-10-02T02:02:57.101Z,15.35
2023-10-02T02:03:56.947Z,15.35
2023-10-02T02:04:56.946Z,15.29
2023-10-02T02:05:56.852Z,15.31
2023-10-02T02:06:56.834Z,15.35
2023-10-02T02:07:56.871Z,15.31
2023-10-02T02:08:56.860Z,15.36
2023-10-02T02:09:56.811Z,15.31
2023-10-02T02:10:56.828Z,15.40
2023-10-02T02:11:56.783Z,15.40
2023-10-02T02:12:56.828Z,15.43
2023-10-02T02:13:56.814Z,15.31
2023-10-02T02:14:56.785Z,15.33
2023-10-02T02:15:56.756Z,15.31
2023-10-02T02:16:56.802Z,15.35
2023-10-02T02:17:56.873Z,15.40
2023-10-02T02:18:56.711Z,15.36
2023-10-02T02:19:56.837Z,15.43
2023-10-02T02:20:56.701Z,15.35
2023-10-02T02:21:56.765Z,15.31
2023-10-02T02:22:56.682Z,15.28
2023-10-02T02:23:56.665Z,15.31
2023-10-02T02:24:56.661Z,15.28
2023-10-02T02:25:56.694Z,15.31
2023-10-02T02:26:56.630Z,15.31
2023-10-02T02:27:56.676Z,15.35
2023-10-02T02:28:56.759Z,15.36
2023-10-02T02:29:56.635Z,15.36
2023-10-02T02:30:56.639Z,15.31
2023-10-02T02:31:56.906Z,15.31
2023-10-02T02:32:56.623Z,15.29
2023-10-02T02:33:56.654Z,15.28
2023-10-02T02:34:56.579Z,15.29
2023-10-02T02:35:56.547Z,15.29
2023-10-02T02:36:56.522Z,15.31
2023-10-02T02:37:56.574Z,15.28
2023-10-02T02:38:56.499Z,15.31
2023-10-02T02:39:56.529Z,15.33
2023-10-02T02:40:56.518Z,15.35
2023-10-02T02:41:56.463Z,15.33
2023-10-02T02:42:56.455Z,15.31
2023-10-02T02:43:56.555Z,15.37
2023-10-02T02:44:56.452Z,15.40
2023-10-02T02:45:56.547Z,15.36
2023-10-02T02:46:56.467Z,15.36
2023-10-02T02:47:56.434Z,15.36
2023-10-02T02:48:56.399Z,15.42
2023-10-02T02:49:56.416Z,15.37
2023-10-02T02:50:56.395Z,15.35
2023-10-02T02:51:56.390Z,15.24
2023-10-02T02:52:56.439Z,15.35
2023-10-02T02:53:56.342Z,15.35
2023-10-02T02:54:56.333Z,15.37
2023-10-02T02:55:56.361Z,15.37
2023-10-02T02:56:56.314Z,15.36
2023-10-02T02:57:56.306Z,15.36
2023-10-02T02:58:56.389Z,15.35
2023-10-02T02:59:56.285Z,15.35
2023-10-02T03:00:56.303Z,15.40
2023-10-02T03:01:56.324Z,15.36
2023-10-02T03:02:56.363Z,15.31
2023-10-02T03:03:56.409Z,15.36
2023-10-02T03:04:56.330Z,15.37
2023-10-02T03:05:56.230Z,15.36
2023-10-02T03:06:56.209Z,15.36
2023-10-02T03:07:56.517Z,15.40
2023-10-02T03:08:56.210Z,15.43
2023-10-02T03:09:56.207Z,15.42
2023-10-02T03:10:56.313Z,15.40
2023-10-02T03:11:56.218Z,15.43
2023-10-02T03:12:56.221Z,15.36
2023-10-02T03:13:56.169Z,15.40
2023-10-02T03:14:56.134Z,15.42
2023-10-02T03:15:56.179Z,15.44
2023-10-02T03:16:56.177Z,15.44
2023-10-02T03:17:56.121Z,15.44
2023-10-02T03:18:56.165Z,15.43
2023-10-02T03:19:56.133Z,15.36
2023-10-02T03:20:56.073Z,15.36
2023-10-02T03:21:56.060Z,15.31
2023-10-02T03:22:56.078Z,15.29
2023-10-02T03:23:56.475Z,15.31
2023-10-02T03:24:56.010Z,15.27
2023-10-02T03:25:56.087Z,15.36
2023-10-02T03:26:56.029Z,15.31
2023-10-02T03:27:55.981Z,15.28
2023-10-02T03:28:56.003Z,15.33
2023-10-02T03:29:55.969Z,15.33
2023-10-02T03:30:55.957Z,15.29
2023-10-02T03:31:56.025Z,15.33
2023-10-02T03:32:56.043Z,15.31
2023-10-02T03:33:55.919Z,15.35
2023-10-02T03:34:55.946Z,15.31
2023-10-02T03:35:55.922Z,15.40
2023-10-02T03:36:55.907Z,15.35
2023-10-02T03:37:55.902Z,15.33
2023-10-02T03:38:55.917Z,15.31
2023-10-02T03:39:55.854Z,15.37
2023-10-02T03:40:55.902Z,15.33
2023-10-02T03:41:55.842Z,15.31
2023-10-02T03:42:55.819Z,15.31
2023-10-02T03:43:55.804Z,15.35
2023-10-02T03:44:55.907Z,15.29
2023-10-02T03:45:55.833Z,15.25
2023-10-02T03:46:55.817Z,15.25
2023-10-02T03:47:55.827Z,15.24
2023-10-02T03:48:55.749Z,15.24
2023-10-02T03:49:55.824Z,15.36
2023-10-02T03:50:55.785Z,15.36
2023-10-02T03:51:55.755Z,15.29
2023-10-02T03:52:55.757Z,15.35
2023-10-02T03:53:55.711Z,15.42
2023-10-02T03:54:55.755Z,15.36
2023-10-02T03:55:55.733Z,15.33
2023-10-02T03:56:55.715Z,15.43
2023-10-02T03:57:55.678Z,15.39
2023-10-02T03:58:55.730Z,15.42
2023-10-02T03:59:55.648Z,15.43
2023-10-02T04:00:55.653Z,15.37
2023-10-02T04:01:55.654Z,15.36
2023-10-02T04:02:55.621Z,15.39
2023-10-02T04:03:55.654Z,15.29
2023-10-02T04:04:55.643Z,15.36
2023-10-02T04:05:55.570Z,15.40
2023-10-02T04:06:55.687Z,15.37
2023-10-02T04:07:55.675Z,15.47
2023-10-02T04:08:55.537Z,15.35
2023-10-02T04:09:55.541Z,15.35
2023-10-02T04:10:55.631Z,15.31
2023-10-02T04:11:55.517Z,15.36
2023-10-02T04:12:55.517Z,15.42
2023-10-02T04:13:55.505Z,15.36
2023-10-02T04:14:55.476Z,15.27
2023-10-02T04:15:55.486Z,15.37
2023-10-02T04:16:55.559Z,15.29
2023-10-02T04:17:55.465Z,15.29
2023-10-02T04:18:55.453Z,15.28
2023-10-02T04:19:55.439Z,15.43
2023-10-02T04:20:55.418Z,15.39
2023-10-02T04:21:55.415Z,15.36
2023-10-02T04:22:55.531Z,15.36
2023-10-02T04:23:55.391Z,15.46
2023-10-02T04:24:55.366Z,15.40
2023-10-02T04:25:55.412Z,15.43
2023-10-02T04:26:55.462Z,15.43
2023-10-02T04:27:55.354Z,15.44
2023-10-02T04:28:55.480Z,15.44
2023-10-02T04:29:55.330Z,15.42
2023-10-02T04:30:55.321Z,15.46
2023-10-02T04:31:55.348Z,15.43
2023-10-02T04:32:55.445Z,15.43
2023-10-02T04:33:55.277Z,15.49
2023-10-02T04:34:55.331Z,15.39
2023-10-02T04:35:55.268Z,15.49
2023-10-02T04:36:55.244Z,15.55
2023-10-02T04:37:55.258Z,15.58
2023-10-02T04:38:55.225Z,15.46
2023-10-02T04:39:55.307Z,15.51
2023-10-02T04:40:55.303Z,15.59
2023-10-02T04:41:55.192Z,15.57
2023-10-02T04:42:55.185Z,15.54
2023-10-02T04:43:55.248Z,15.54
2023-10-02T04:44:55.161Z,15.57
2023-10-02T04:45:55.204Z,15.59
2023-10-02T04:46:55.200Z,15.52
2023-10-02T04:47:55.197Z,15.61
2023-10-02T04:48:55.124Z,15.59
2023-10-02T04:49:55.155Z,15.61
2023-10-02T04:50:55.097Z,15.62
2023-10-02T04:51:55.137Z,15.64
2023-10-02T04:52:55.310Z,15.62
2023-10-02T04:53:55.098Z,15.65
2023-10-02T04:54:55.052Z,15.62
2023-10-02T04:55:55.179Z,15.72
2023-10-02T04:56:55.031Z,15.70
2023-10-02T04:57:55.027Z,15.72
2023-10-02T04:58:55.136Z,15.73
2023-10-02T04:59:55.009Z,15.75
2023-10-02T05:00:55.043Z,15.68
2023-10-02T05:01:55.012Z,15.73
2023-10-02T05:02:55.021Z,15.73
2023-10-02T05:03:55.043Z,15.68
2023-10-02T05:04:54.978Z,15.75
2023-10-02T05:05:54.954Z,15.83
2023-10-02T05:06:54.976Z,15.80
2023-10-02T05:07:54.964Z,15.80
2023-10-02T05:08:54.907Z,15.68
2023-10-02T05:09:54.952Z,15.80
2023-10-02T05:10:54.973Z,15.80
2023-10-02T05:11:54.914Z,15.80
2023-10-02T05:12:54.860Z,15.72
2023-10-02T05:13:55.191Z,15.68
2023-10-02T05:14:54.856Z,15.76
2023-10-02T05:15:54.893Z,15.75
2023-10-02T05:16:54.961Z,15.72
2023-10-02T05:17:54.900Z,15.72
2023-10-02T05:18:54.847Z,15.68
2023-10-02T05:19:54.801Z,15.65
2023-10-02T05:20:54.794Z,15.61
2023-10-02T05:21:54.765Z,15.70
2023-10-02T05:22:54.844Z,15.59
2023-10-02T05:23:54.743Z,15.61
2023-10-02T05:24:54.733Z,15.58
2023-10-02T05:25:54.771Z,15.59
2023-10-02T05:26:54.720Z,15.52
2023-10-02T05:27:54.720Z,15.49
2023-10-02T05:28:54.803Z,15.54
2023-10-02T05:29:54.681Z,15.55
2023-10-02T05:30:54.752Z,15.52
2023-10-02T05:31:54.701Z,15.54
2023-10-02T05:32:54.679Z,15.52
2023-10-02T05:33:54.677Z,15.47
2023-10-02T05:34:54.666Z,15.42
2023-10-02T05:35:54.641Z,15.42
2023-10-02T05:36:54.613Z,15.42
2023-10-02T05:37:54.645Z,15.49
2023-10-02T05:38:54.632Z,15.46
2023-10-02T05:39:54.581Z,15.47
2023-10-02T05:40:54.613Z,15.46
2023-10-02T05:41:54.671Z,15.43
2023-10-02T05:42:54.547Z,15.46
2023-10-02T05:43:54.604Z,15.43
2023-10-02T05:44:54.545Z,15.43
2023-10-02T05:45:54.536Z,15.37
2023-10-02T05:46:54.670Z,15.36
2023-10-02T05:47:54.523Z,15.37
2023-10-02T05:48:54.496Z,15.40
2023-10-02T05:49:54.513Z,15.43
2023-10-02T05:50:54.506Z,15.43
2023-10-02T05:51:54.454Z,15.49
2023-10-02T05:52:54.522Z,15.47
2023-10-02T05:53:54.590Z,15.43
2023-10-02T05:54:54.413Z,15.44
2023-10-02T05:55:54.496Z,15.42
2023-10-02T05:56:54.393Z,15.43
2023-10-02T05:57:54.388Z,15.47
2023-10-02T05:58:54.420Z,15.44
2023-10-02T05:59:54.541Z,15.49
2023-10-02T06:00:54.398Z,15.58
2023-10-02T06:01:54.388Z,15.55
2023-10-02T06:02:54.426Z,15.58
2023-10-02T06:03:54.386Z,15.59
2023-10-02T06:04:54.583Z,15.64
2023-10-02T06:06:01.640Z,15.67
2023-10-02T06:06:55.291Z,15.72
2023-10-02T06:07:54.371Z,15.75
2023-10-02T06:08:54.287Z,15.75
2023-10-02T06:09:54.261Z,15.79
2023-10-02T06:10:54.276Z,15.77
2023-10-02T06:11:54.254Z,15.88
2023-10-02T06:12:54.255Z,15.88
2023-10-02T06:13:54.222Z,15.91
2023-10-02T06:14:54.202Z,15.92
2023-10-02T06:15:54.244Z,15.94
2023-10-02T06:16:54.316Z,15.94
2023-10-02T06:17:54.274Z,15.92
2023-10-02T06:18:54.245Z,15.94
2023-10-02T06:19:54.247Z,16.01
2023-10-02T06:20:54.142Z,15.98
2023-10-02T06:21:54.131Z,16.00
2023-10-02T06:22:54.191Z,15.90
2023-10-02T06:23:54.124Z,16.04
2023-10-02T06:24:54.104Z,15.98
2023-10-02T06:25:54.255Z,15.92
2023-10-02T06:26:54.089Z,15.98
2023-10-02T06:27:54.087Z,15.97
2023-10-02T06:28:54.080Z,16.05
2023-10-02T06:29:54.037Z,16.02
2023-10-02T06:30:54.136Z,16.08
2023-10-02T06:31:54.095Z,16.12
2023-10-02T06:32:54.557Z,16.01
2023-10-02T06:33:54.064Z,16.04
2023-10-02T06:34:54.053Z,16.10
2023-10-02T06:35:53.983Z,16.12
2023-10-02T06:36:54.069Z,16.09
2023-10-02T06:37:54.003Z,16.20
2023-10-02T06:38:53.942Z,16.17
2023-10-02T06:39:53.934Z,16.13
2023-10-02T06:40:53.969Z,16.16
2023-10-02T06:41:54.037Z,16.21
2023-10-02T06:42:53.936Z,16.23
2023-10-02T06:43:53.908Z,16.21
2023-10-02T06:44:54.054Z,16.21
2023-10-02T06:45:53.923Z,16.23
2023-10-02T06:46:56.974Z,16.21
2023-10-02T06:47:53.899Z,16.29
2023-10-02T06:48:53.860Z,16.24
2023-10-02T06:49:53.888Z,16.24
2023-10-02T06:50:53.869Z,16.20
2023-10-02T06:51:53.804Z,16.21
2023-10-02T06:52:53.833Z,16.23
2023-10-02T06:53:53.814Z,16.24
2023-10-02T06:54:53.766Z,16.24
2023-10-02T06:55:53.779Z,16.26
2023-10-02T06:56:53.749Z,16.32
2023-10-02T06:57:53.865Z,16.33
2023-10-02T06:58:54.007Z,16.33
2023-10-02T06:59:53.717Z,16.26
2023-10-02T07:00:53.702Z,16.29
2023-10-02T07:01:53.740Z,16.32
2023-10-02T07:02:53.738Z,16.31
2023-10-02T07:03:54.195Z,16.29
2023-10-02T07:04:53.693Z,16.33
2023-10-02T07:05:53.699Z,16.36
2023-10-02T07:06:53.633Z,16.42
2023-10-02T07:07:53.710Z,16.36
2023-10-02T07:08:53.626Z,16.41
2023-10-02T07:09:53.616Z,16.47
2023-10-02T07:10:53.667Z,16.43
2023-10-02T07:11:53.582Z,16.50
2023-10-02T07:12:53.589Z,16.47
2023-10-02T07:13:53.850Z,16.53
2023-10-02T07:14:53.569Z,16.54
2023-10-02T07:15:53.555Z,16.60
2023-10-02T07:16:53.677Z,16.64
2023-10-02T07:17:53.653Z,16.64
2023-10-02T07:18:53.503Z,16.76
2023-10-02T07:19:53.594Z,16.83
2023-10-02T07:20:53.490Z,16.89
2023-10-02T07:21:53.534Z,16.87
2023-10-02T07:22:53.535Z,16.94
2023-10-02T07:23:53.501Z,16.99
2023-10-02T07:24:53.446Z,16.97
2023-10-02T07:25:53.495Z,17.04
2023-10-02T07:26:53.433Z,17.12
2023-10-02T07:27:53.485Z,17.04
2023-10-02T07:28:53.506Z,17.19
2023-10-02T07:29:53.387Z,17.15
2023-10-02T07:30:53.386Z,17.19
2023-10-02T07:31:53.448Z,17.27
2023-10-02T07:32:53.510Z,17.24
2023-10-02T07:33:53.344Z,17.33
2023-10-02T07:34:53.372Z,17.33
2023-10-02T07:35:53.376Z,17.27
2023-10-02T07:36:53.356Z,17.34
2023-10-02T07:37:53.343Z,17.31
2023-10-02T07:38:53.287Z,17.34
2023-10-02T07:39:53.292Z,17.45
2023-10-02T07:40:53.329Z,17.45
2023-10-02T07:41:53.260Z,17.46
2023-10-02T07:42:53.269Z,17.51
2023-10-02T07:43:53.253Z,17.48
2023-10-02T07:44:53.231Z,17.60
2023-10-02T07:45:53.251Z,17.56
2023-10-02T07:46:53.243Z,17.57
2023-10-02T07:47:53.251Z,17.46
2023-10-02T07:48:53.214Z,17.54
2023-10-02T07:49:53.318Z,17.59
2023-10-02T07:50:53.161Z,17.65
2023-10-02T07:51:53.183Z,17.57
2023-10-02T07:52:53.166Z,17.65
2023-10-02T07:53:53.165Z,17.67
2023-10-02T07:54:53.122Z,17.67
2023-10-02T07:55:53.130Z,17.70
2023-10-02T07:56:53.105Z,17.72
2023-10-02T07:57:53.091Z,17.79
2023-10-02T07:58:53.082Z,17.78
2023-10-02T07:59:53.107Z,17.79
2023-10-02T08:00:53.054Z,17.80
2023-10-02T08:01:53.151Z,17.83
2023-10-02T08:02:53.100Z,17.86
2023-10-02T08:03:53.065Z,17.86
2023-10-02T08:04:53.385Z,17.89
2023-10-02T08:05:53.037Z,17.92
2023-10-02T08:07:00.463Z,17.94
2023-10-02T08:07:54.113Z,17.89
2023-10-02T08:08:52.988Z,17.92
2023-10-02T08:09:52.959Z,17.87
2023-10-02T08:10:52.970Z,17.98
2023-10-02T08:11:52.948Z,17.98
2023-10-02T08:12:52.956Z,17.95
2023-10-02T08:13:52.936Z,17.97
2023-10-02T08:14:52.904Z,17.97
2023-10-02T08:15:52.921Z,17.95
2023-10-02T08:16:54.936Z,17.94
2023-10-02T08:17:52.909Z,18.07
2023-10-02T08:18:52.906Z,18.00
2023-10-02T08:19:52.860Z,18.04
2023-10-02T08:20:52.842Z,18.01
2023-10-02T08:21:52.859Z,18.04
2023-10-02T08:22:52.934Z,18.08
2023-10-02T08:23:52.828Z,18.07
2023-10-02T08:24:52.806Z,18.01
2023-10-02T08:25:55.415Z,18.05
2023-10-02T08:26:53.801Z,18.05
2023-10-02T08:27:52.764Z,18.11
2023-10-02T08:28:52.799Z,18.15
2023-10-02T08:29:52.793Z,18.10
2023-10-02T08:30:52.748Z,18.16
2023-10-02T08:31:52.775Z,18.23
2023-10-02T08:32:52.910Z,18.25
2023-10-02T08:33:59.348Z,18.28
2023-10-02T08:34:53.857Z,18.19
2023-10-02T08:35:52.755Z,18.25
2023-10-02T08:36:52.717Z,18.22
2023-10-02T08:37:52.731Z,18.23
2023-10-02T08:38:59.463Z,18.25
2023-10-02T08:39:53.656Z,18.33
2023-10-02T08:40:52.640Z,18.33
2023-10-02T08:41:52.929Z,18.34
2023-10-02T08:42:52.600Z,18.31
2023-10-02T08:43:52.620Z,18.41
2023-10-02T08:44:52.585Z,18.35
2023-10-02T08:45:52.704Z,18.29
2023-10-02T08:46:52.589Z,18.40
2023-10-02T08:47:52.633Z,18.45
2023-10-02T08:48:52.609Z,18.52
2023-10-02T08:49:52.582Z,18.55
2023-10-02T08:50:52.547Z,18.52
2023-10-02T08:51:52.510Z,18.58
2023-10-02T08:52:52.592Z,18.71
2023-10-02T08:53:52.588Z,18.66
2023-10-02T08:54:52.507Z,18.78
2023-10-02T08:55:52.567Z,18.74
2023-10-02T08:56:52.449Z,18.83
2023-10-02T08:58:02.439Z,18.78
2023-10-02T08:58:53.477Z,18.92
2023-10-02T08:59:52.538Z,18.88
2023-10-02T09:00:52.440Z,18.89
2023-10-02T09:01:52.467Z,18.93
2023-10-02T09:02:52.528Z,18.96
2023-10-02T09:03:52.453Z,18.99
2023-10-02T09:04:52.436Z,19.02
2023-10-02T09:05:52.370Z,18.99
2023-10-02T09:06:52.399Z,19.12
2023-10-02T09:07:52.353Z,19.12
2023-10-02T09:08:52.372Z,19.15
2023-10-02T09:09:52.317Z,19.29
2023-10-02T09:10:52.593Z,19.24
2023-10-02T09:11:52.315Z,19.29
2023-10-02T09:12:52.390Z,19.26
2023-10-02T09:13:52.414Z,19.33
2023-10-02T09:14:52.321Z,19.34
2023-10-02T09:15:52.352Z,19.47
2023-10-02T09:16:52.260Z,19.36
2023-10-02T09:17:52.289Z,19.47
2023-10-02T09:18:52.238Z,19.40
2023-10-02T09:19:52.233Z,19.44
2023-10-02T09:20:52.218Z,19.51
2023-10-02T09:21:52.207Z,19.52
2023-10-02T09:22:52.238Z,19.41
2023-10-02T09:23:52.222Z,19.49
2023-10-02T09:24:52.172Z,19.47
2023-10-02T09:25:52.179Z,19.44
2023-10-02T09:26:52.138Z,19.40
2023-10-02T09:27:52.215Z,19.51
2023-10-02T09:28:52.169Z,19.54
2023-10-02T09:29:52.116Z,19.56
2023-10-02T09:30:52.104Z,19.59
2023-10-02T09:31:52.173Z,19.63
2023-10-02T09:32:53.507Z,19.59
2023-10-02T09:34:19.591Z,19.67
2023-10-02T09:35:38.730Z,19.69
2023-10-02T09:36:14.777Z,19.71
2023-10-02T09:37:13.476Z,19.70
2023-10-02T09:38:07.014Z,19.69
2023-10-02T09:38:53.086Z,19.70
2023-10-02T09:39:52.238Z,19.76
2023-10-02T09:40:52.006Z,19.86
2023-10-02T09:41:51.977Z,19.88
2023-10-02T09:42:52.149Z,19.84
2023-10-02T09:43:52.055Z,19.85
2023-10-02T09:44:52.002Z,19.89
2023-10-02T09:45:52.064Z,19.92
2023-10-02T09:46:51.949Z,19.86
2023-10-02T09:48:53.138Z,19.94
2023-10-02T09:49:51.935Z,19.99
2023-10-02T09:50:51.962Z,19.96
2023-10-02T09:51:51.911Z,20.04
2023-10-02T09:52:51.888Z,20.04
2023-10-02T09:53:51.870Z,20.03
2023-10-02T09:54:51.903Z,20.06
2023-10-02T09:55:51.902Z,20.14
2023-10-02T09:56:51.832Z,20.22
2023-10-02T09:57:51.828Z,20.13
2023-10-02T09:58:51.842Z,20.14
2023-10-02T09:59:51.842Z,20.19
2023-10-02T10:00:51.813Z,20.22
2023-10-02T10:01:51.845Z,20.25
2023-10-02T10:02:51.831Z,20.26
2023-10-02T10:03:51.763Z,20.29
2023-10-02T10:04:51.785Z,20.29
2023-10-02T10:05:51.726Z,20.31
2023-10-02T10:06:51.729Z,20.31
2023-10-02T10:07:51.723Z,20.29
2023-10-02T10:08:51.684Z,20.22
2023-10-02T10:09:51.711Z,20.26
2023-10-02T10:10:51.804Z,20.22
2023-10-02T10:11:51.705Z,20.25
2023-10-02T10:12:51.649Z,20.29
2023-10-02T10:13:51.675Z,20.28
2023-10-02T10:14:51.657Z,20.34
2023-10-02T10:15:51.646Z,20.36
2023-10-02T10:16:51.691Z,20.25
2023-10-02T10:17:51.653Z,20.31
2023-10-02T10:18:51.597Z,20.24
2023-10-02T10:19:51.608Z,20.24
2023-10-02T10:20:51.592Z,20.24
2023-10-02T10:21:51.577Z,20.25
2023-10-02T10:22:51.592Z,20.28
2023-10-02T10:23:51.561Z,20.39
2023-10-02T10:24:51.521Z,20.41
2023-10-02T10:25:51.800Z,20.37
2023-10-02T10:26:51.497Z,20.47
2023-10-02T10:27:51.511Z,20.48
2023-10-02T10:28:51.499Z,20.48
2023-10-02T10:29:51.476Z,20.48
2023-10-02T10:30:51.672Z,20.52
2023-10-02T10:31:51.496Z,20.56
2023-10-02T10:32:51.442Z,20.59
2023-10-02T10:33:51.487Z,20.51
2023-10-02T10:34:51.475Z,20.52
2023-10-02T10:35:51.402Z,20.65
2023-10-02T10:36:51.406Z,20.67
2023-10-02T10:37:51.425Z,20.78
2023-10-02T10:38:51.394Z,20.70
2023-10-02T10:39:51.409Z,20.82
2023-10-02T10:40:51.405Z,20.77
2023-10-02T10:41:51.327Z,20.87
2023-10-02T10:42:51.343Z,20.90
2023-10-02T10:43:51.404Z,20.95
2023-10-02T10:44:51.325Z,21.03
2023-10-02T10:45:51.451Z,20.99
2023-10-02T10:46:51.319Z,21.06
2023-10-02T10:47:51.337Z,21.12
2023-10-02T10:48:51.271Z,21.15
2023-10-02T10:49:51.269Z,21.11
2023-10-02T10:50:51.252Z,21.20
2023-10-02T10:51:51.309Z,21.27
2023-10-02T10:52:51.254Z,21.33
2023-10-02T10:53:51.208Z,21.27
2023-10-02T10:54:52.293Z,21.30
2023-10-02T10:55:52.232Z,21.30
2023-10-02T10:56:51.164Z,21.30
2023-10-02T10:57:51.156Z,21.35
2023-10-02T10:58:51.256Z,21.37
2023-10-02T10:59:51.134Z,21.43
2023-10-02T11:00:51.146Z,21.45
2023-10-02T11:01:51.146Z,21.50
2023-10-02T11:02:51.158Z,21.55
2023-10-02T11:03:51.164Z,21.62
2023-10-02T11:04:51.142Z,21.51
2023-10-02T11:05:51.136Z,21.66
2023-10-02T11:06:51.059Z,21.62
2023-10-02T11:07:51.139Z,21.67
2023-10-02T11:08:51.050Z,21.70
2023-10-02T11:09:51.033Z,21.76
2023-10-02T11:10:51.116Z,21.72
2023-10-02T11:11:51.046Z,21.76
2023-10-02T11:12:50.997Z,21.75
2023-10-02T11:13:51.016Z,21.85
2023-10-02T11:14:50.975Z,21.83
2023-10-02T11:15:50.981Z,21.89
2023-10-02T11:16:51.074Z,21.96
2023-10-02T11:17:51.058Z,21.95
2023-10-02T11:18:50.929Z,22.02
2023-10-02T11:19:50.990Z,22.06
2023-10-02T11:20:50.943Z,22.00
2023-10-02T11:21:50.907Z,22.02
2023-10-02T11:22:51.125Z,22.00
2023-10-02T11:23:50.903Z,21.96
2023-10-02T11:24:50.878Z,22.07
2023-10-02T11:25:50.925Z,22.10
2023-10-02T11:26:50.864Z,22.15
2023-10-02T11:27:50.852Z,22.17
2023-10-02T11:28:51.021Z,22.14
2023-10-02T11:29:50.818Z,22.14
2023-10-02T11:30:50.809Z,22.13
2023-10-02T11:31:50.839Z,22.13
2023-10-02T11:32:50.823Z,22.14
2023-10-02T11:33:50.766Z,22.22
2023-10-02T11:34:50.808Z,22.22
2023-10-02T11:35:50.765Z,22.26
2023-10-02T11:36:50.751Z,22.29
2023-10-02T11:37:50.833Z,22.28
2023-10-02T11:38:50.716Z,22.28
2023-10-02T11:39:50.720Z,22.26
2023-10-02T11:40:50.826Z,22.29
2023-10-02T11:41:50.942Z,22.28
2023-10-02T11:42:50.682Z,22.32
2023-10-02T11:43:50.713Z,22.28
2023-10-02T11:44:50.653Z,22.30
2023-10-02T11:45:50.649Z,22.26
2023-10-02T11:46:50.961Z,22.20
2023-10-02T11:47:50.765Z,22.26
2023-10-02T11:48:50.619Z,22.22
2023-10-02T11:49:50.681Z,22.22
2023-10-02T11:50:50.615Z,22.25
2023-10-02T11:51:50.640Z,22.30
2023-10-02T11:52:50.668Z,22.28
2023-10-02T11:53:50.558Z,22.33
2023-10-02T11:54:50.607Z,22.28
2023-10-02T11:55:50.589Z,22.26
2023-10-02T11:56:50.543Z,22.35
2023-10-02T11:57:50.541Z,22.36
2023-10-02T11:58:50.527Z,22.29
2023-10-02T11:59:50.496Z,22.39
2023-10-02T12:00:50.516Z,22.38
2023-10-02T12:01:50.518Z,22.33
2023-10-02T12:02:50.809Z,22.47
2023-10-02T12:03:50.619Z,22.47
2023-10-02T12:04:50.451Z,22.48
2023-10-02T12:05:50.424Z,22.54
2023-10-02T12:06:50.450Z,22.50
2023-10-02T12:07:50.459Z,22.47
2023-10-02T12:08:50.456Z,22.57
2023-10-02T12:09:50.388Z,22.66
2023-10-02T12:10:50.425Z,22.65
2023-10-02T12:11:50.381Z,22.62
2023-10-02T12:12:50.374Z,22.66
2023-10-02T12:13:50.375Z,22.68
2023-10-02T12:14:50.340Z,22.70
2023-10-02T12:15:50.353Z,22.70
2023-10-02T12:16:50.394Z,22.70
2023-10-02T12:17:50.399Z,22.72
2023-10-02T12:18:50.290Z,22.66
2023-10-02T12:19:50.396Z,22.72
2023-10-02T12:20:50.352Z,22.78
2023-10-02T12:22:05.652Z,22.85
2023-10-02T12:22:51.281Z,22.83
2023-10-02T12:23:50.268Z,22.83
2023-10-02T12:24:50.228Z,22.81
2023-10-02T12:25:50.216Z,22.78
2023-10-02T12:26:50.264Z,22.88
2023-10-02T12:27:50.224Z,22.94
2023-10-02T12:28:50.193Z,22.91
2023-10-02T12:29:50.193Z,22.98
2023-10-02T12:30:50.170Z,22.96
2023-10-02T12:31:50.161Z,22.94
2023-10-02T12:32:50.222Z,22.96
2023-10-02T12:33:50.126Z,22.96
2023-10-02T12:34:50.216Z,22.98
2023-10-02T12:35:50.112Z,22.99
2023-10-02T12:36:50.117Z,22.90
2023-10-02T12:37:50.143Z,23.05
2023-10-02T12:38:50.076Z,23.09
2023-10-02T12:39:50.134Z,23.03
2023-10-02T12:40:50.110Z,23.08
2023-10-02T12:41:50.053Z,23.06
2023-10-02T12:42:50.080Z,22.91
2023-10-02T12:43:50.020Z,22.94
2023-10-02T12:44:50.018Z,23.00
2023-10-02T12:45:50.020Z,23.08
2023-10-02T12:46:50.049Z,23.06
2023-10-02T12:47:50.073Z,23.03
2023-10-02T12:48:50.007Z,22.94
2023-10-02T12:49:50.157Z,23.06
2023-10-02T12:50:49.963Z,23.12
2023-10-02T12:51:49.955Z,23.00
2023-10-02T12:52:49.939Z,23.05
2023-10-02T12:53:49.959Z,23.09